createdAt,value
2018-09-14T00:01:02.831Z,94.00
2018-09-14T00:03:31.172Z,93.90
2018-09-14T00:06:06.050Z,93.90
2018-09-14T00:08:34.255Z,94.00
2018-09-14T00:11:02.492Z,93.60
2018-09-14T00:13:30.732Z,93.60
2018-09-14T00:15:59.212Z,93.70
2018-09-14T00:18:27.481Z,93.40
2018-09-14T00:20:55.734Z,93.20
2018-09-14T00:23:24.019Z,92.80
2018-09-14T00:28:20.261Z,93.00
2018-09-14T00:30:48.464Z,93.20
2018-09-14T00:33:16.661Z,93.90
2018-09-14T00:35:44.912Z,93.80
2018-09-14T00:38:13.207Z,93.70
2018-09-14T00:40:41.412Z,94.00
2018-09-14T00:43:09.624Z,94.00
2018-09-14T00:45:37.861Z,93.80
2018-09-14T00:48:06.159Z,94.00
2018-09-14T00:50:34.493Z,94.10
2018-09-14T00:53:02.754Z,94.00
2018-09-14T00:55:30.948Z,93.80
2018-09-14T00:57:59.231Z,94.20
2018-09-14T01:00:27.494Z,94.00
2018-09-14T01:02:55.817Z,94.10
2018-09-14T01:05:24.075Z,94.40
2018-09-14T01:07:52.343Z,94.30
2018-09-14T01:10:20.657Z,94.20
2018-09-14T01:12:48.892Z,94.30
2018-09-14T01:15:17.243Z,94.30
2018-09-14T01:17:45.459Z,94.00
2018-09-14T01:20:13.709Z,94.10
2018-09-14T01:22:41.919Z,94.50
2018-09-14T01:25:10.192Z,94.00
2018-09-14T01:27:38.527Z,94.10
2018-09-14T01:30:07.784Z,94.10
2018-09-14T01:32:36.000Z,94.10
2018-09-14T01:35:08.541Z,94.40
2018-09-14T01:37:36.795Z,94.60
2018-09-14T01:40:05.067Z,94.80
2018-09-14T01:42:33.357Z,95.00
2018-09-14T01:45:01.638Z,95.00
2018-09-14T01:47:29.876Z,94.80
2018-09-14T01:49:58.167Z,94.90
2018-09-14T01:52:26.447Z,94.90
2018-09-14T01:54:54.834Z,95.30
2018-09-14T01:57:23.201Z,95.30
2018-09-14T01:59:51.491Z,95.10
2018-09-14T02:02:19.714Z,95.20
2018-09-14T02:04:47.949Z,95.00
2018-09-14T02:07:16.236Z,95.20
2018-09-14T02:09:44.534Z,95.30
2018-09-14T02:12:12.849Z,95.20
2018-09-14T02:14:41.050Z,95.10
2018-09-14T02:17:09.258Z,95.40
2018-09-14T02:19:37.534Z,95.90
2018-09-14T02:22:06.011Z,96.10
2018-09-14T02:24:34.320Z,96.30
2018-09-14T02:27:02.638Z,96.60
2018-09-14T02:29:30.870Z,96.40
2018-09-14T02:32:00.590Z,96.20
2018-09-14T02:34:30.111Z,98.50
2018-09-14T02:36:58.354Z,96.50
2018-09-14T02:39:26.686Z,96.40
2018-09-14T02:41:54.913Z,96.20
2018-09-14T02:44:23.176Z,95.90
2018-09-14T02:46:51.486Z,96.20
2018-09-14T02:49:19.800Z,95.90
2018-09-14T02:51:48.028Z,96.30
2018-09-14T02:54:16.271Z,95.70
2018-09-14T02:56:44.566Z,95.70
2018-09-14T02:59:12.784Z,95.60
2018-09-14T03:01:41.083Z,95.30
2018-09-14T03:04:09.294Z,95.70
2018-09-14T03:06:37.483Z,95.80
2018-09-14T03:09:07.764Z,95.80
2018-09-14T03:11:36.049Z,95.00
2018-09-14T03:14:04.241Z,95.00
2018-09-14T03:16:32.489Z,95.30
2018-09-14T03:19:00.674Z,95.60
2018-09-14T03:21:28.856Z,95.70
2018-09-14T03:23:57.151Z,95.30
2018-09-14T03:26:25.465Z,95.30
2018-09-14T03:28:53.780Z,94.70
2018-09-14T03:31:21.967Z,94.70
2018-09-14T03:33:50.232Z,94.40
2018-09-14T03:36:18.523Z,94.50
2018-09-14T03:38:46.720Z,94.80
2018-09-14T03:41:14.949Z,94.70
2018-09-14T03:43:43.179Z,94.70
2018-09-14T03:46:11.455Z,94.40
2018-09-14T03:48:39.679Z,95.00
2018-09-14T03:51:08.116Z,94.50
2018-09-14T03:53:36.490Z,94.90
2018-09-14T03:56:04.753Z,95.40
2018-09-14T03:58:33.039Z,95.30
2018-09-14T04:01:01.268Z,95.10
2018-09-14T04:03:29.474Z,95.00
2018-09-14T04:05:57.728Z,94.70
2018-09-14T04:08:25.986Z,94.70
2018-09-14T04:10:54.232Z,95.00
2018-09-14T04:13:22.475Z,94.40
2018-09-14T04:15:50.731Z,94.60
2018-09-14T04:18:18.923Z,94.60
2018-09-14T04:20:47.108Z,94.80
2018-09-14T04:23:18.358Z,95.10
2018-09-14T04:25:46.578Z,94.80
2018-09-14T04:28:14.823Z,94.50
2018-09-14T04:30:43.029Z,94.40
2018-09-14T04:33:11.242Z,94.70
2018-09-14T04:43:03.350Z,94.60
2018-09-14T04:45:31.533Z,95.00
2018-09-14T04:47:59.705Z,95.10
2018-09-14T04:50:27.886Z,94.80
2018-09-14T04:52:56.127Z,94.30
2018-09-14T04:55:24.379Z,94.20
2018-09-14T04:57:52.636Z,94.20
2018-09-14T05:00:20.891Z,94.10
2018-09-14T05:02:49.082Z,93.80
2018-09-14T05:05:17.335Z,94.00
2018-09-14T05:07:45.661Z,94.00
2018-09-14T05:10:13.904Z,94.10
2018-09-14T05:12:42.096Z,94.40
2018-09-14T05:15:10.355Z,94.10
2018-09-14T05:17:38.623Z,93.60
2018-09-14T05:20:06.891Z,94.00
2018-09-14T05:22:35.180Z,93.80
2018-09-14T05:25:03.522Z,93.50
2018-09-14T05:27:31.744Z,93.70
2018-09-14T05:29:59.999Z,93.10
2018-09-14T05:32:28.191Z,93.20
2018-09-14T05:34:56.387Z,93.20
2018-09-14T05:37:24.675Z,93.40
2018-09-14T05:39:52.875Z,93.40
2018-09-14T05:42:21.143Z,93.40
2018-09-14T05:44:49.355Z,93.70
2018-09-14T05:47:17.550Z,93.70
2018-09-14T05:49:45.726Z,93.50
2018-09-14T05:52:14.001Z,93.00
2018-09-14T05:54:42.248Z,92.80
2018-09-14T05:57:10.445Z,93.10
2018-09-14T05:59:38.627Z,93.30
2018-09-14T06:02:06.887Z,93.30
2018-09-14T06:04:35.152Z,93.60
2018-09-14T06:07:03.516Z,93.60
2018-09-14T06:09:31.706Z,93.20
2018-09-14T06:11:59.895Z,93.40
2018-09-14T06:14:28.083Z,93.60
2018-09-14T06:16:56.378Z,93.90
2018-09-14T06:19:24.644Z,94.00
2018-09-14T06:21:52.944Z,94.20
2018-09-14T06:24:21.143Z,94.40
2018-09-14T06:26:49.368Z,94.30
2018-09-14T06:29:17.694Z,94.00
2018-09-14T06:34:13.904Z,92.70
2018-09-14T06:39:11.700Z,93.10
2018-09-14T06:46:36.684Z,92.40
2018-09-14T06:49:05.731Z,92.90
2018-09-14T06:51:34.537Z,93.30
2018-09-14T06:54:02.866Z,93.70
2018-09-14T06:56:31.112Z,94.20
2018-09-14T06:58:59.401Z,94.50
2018-09-14T07:01:33.891Z,94.30
2018-09-14T07:04:02.185Z,94.60
2018-09-14T07:06:30.524Z,93.80
2018-09-14T07:08:58.666Z,93.40
2018-09-14T07:11:26.890Z,93.70
2018-09-14T07:13:55.380Z,93.50
2018-09-14T07:16:23.614Z,93.90
2018-09-14T07:18:51.831Z,93.90
2018-09-14T07:21:20.100Z,94.20
2018-09-14T07:23:48.375Z,94.10
2018-09-14T07:26:16.641Z,93.80
2018-09-14T07:28:45.045Z,93.80
2018-09-14T07:31:13.215Z,93.90
2018-09-14T07:33:41.486Z,93.80
2018-09-14T07:36:09.675Z,93.00
2018-09-14T07:38:37.888Z,92.60
2018-09-14T07:41:06.543Z,92.50
2018-09-14T07:43:34.739Z,92.90
2018-09-14T07:46:02.955Z,93.20
2018-09-14T07:48:31.312Z,93.50
2018-09-14T07:50:59.531Z,93.50
2018-09-14T07:53:27.734Z,93.50
2018-09-14T07:55:55.927Z,93.60
2018-09-14T07:58:24.134Z,93.50
2018-09-14T08:00:52.427Z,93.70
2018-09-14T08:03:20.627Z,92.40
2018-09-14T08:05:48.824Z,93.40
2018-09-14T08:08:17.021Z,93.10
2018-09-14T08:10:45.244Z,92.70
2018-09-14T08:13:13.566Z,93.80
2018-09-14T08:15:41.754Z,94.10
2018-09-14T08:18:10.043Z,94.30
2018-09-14T08:20:38.230Z,94.10
2018-09-14T08:23:06.452Z,94.70
2018-09-14T08:25:34.671Z,94.60
2018-09-14T08:28:02.939Z,94.50
2018-09-14T08:30:31.257Z,94.20
2018-09-14T08:32:59.390Z,93.60
2018-09-14T08:35:27.601Z,93.70
2018-09-14T08:37:55.890Z,93.10
2018-09-14T08:42:52.117Z,93.00
2018-09-14T08:45:20.298Z,92.00
2018-09-14T08:47:48.540Z,93.00
2018-09-14T08:50:16.940Z,91.30
2018-09-14T08:52:45.204Z,91.60
2018-09-14T08:55:13.404Z,92.40
2018-09-14T08:57:41.622Z,92.50
2018-09-14T09:00:10.287Z,91.50
2018-09-14T09:02:38.488Z,91.30
2018-09-14T09:05:06.718Z,91.60
2018-09-14T09:07:35.060Z,91.20
2018-09-14T09:10:03.416Z,91.60
2018-09-14T09:12:31.703Z,91.50
2018-09-14T09:15:01.154Z,91.40
2018-09-14T09:17:29.346Z,91.60
2018-09-14T09:19:57.628Z,91.50
2018-09-14T09:22:25.951Z,90.80
2018-09-14T09:24:54.205Z,90.90
2018-09-14T09:27:22.455Z,90.50
2018-09-14T09:29:50.698Z,90.80
2018-09-14T09:32:18.930Z,90.00
2018-09-14T09:34:47.220Z,88.00
2018-09-14T09:37:15.521Z,89.40
2018-09-14T09:39:43.860Z,90.20
2018-09-14T09:42:12.123Z,88.30
2018-09-14T09:44:40.345Z,90.00
2018-09-14T09:49:36.558Z,90.30
2018-09-14T09:54:33.138Z,90.20
2018-09-14T09:57:01.431Z,90.50
2018-09-14T09:59:29.639Z,90.30
2018-09-14T10:02:03.306Z,90.40
2018-09-14T10:04:33.183Z,89.80
2018-09-14T10:07:01.454Z,87.70
2018-09-14T10:09:29.739Z,88.50
2018-09-14T10:11:57.931Z,88.70
2018-09-14T10:14:26.190Z,87.70
2018-09-14T10:16:54.591Z,89.60
2018-09-14T10:19:22.795Z,88.50
2018-09-14T10:21:51.020Z,90.10
2018-09-14T10:24:19.205Z,89.10
2018-09-14T10:26:47.502Z,89.90
2018-09-14T10:29:15.772Z,87.50
2018-09-14T10:31:44.055Z,88.50
2018-09-14T10:34:12.299Z,89.10
2018-09-14T10:36:40.582Z,89.30
2018-09-14T10:39:09.911Z,90.40
2018-09-14T10:41:38.092Z,86.10
2018-09-14T10:44:06.403Z,79.50
2018-09-14T10:46:34.632Z,81.80
2018-09-14T10:49:02.828Z,82.20
2018-09-14T10:51:31.347Z,78.80
2018-09-14T10:53:59.575Z,78.60
2018-09-14T10:56:27.810Z,79.00
2018-09-14T10:58:56.016Z,81.50
2018-09-14T11:01:24.263Z,81.60
2018-09-14T11:03:52.486Z,79.80
2018-09-14T11:06:20.794Z,78.90
2018-09-14T11:08:49.016Z,79.30
2018-09-14T11:11:17.250Z,80.90
2018-09-14T11:13:45.488Z,80.00
2018-09-14T11:16:13.728Z,81.10
2018-09-14T11:18:41.978Z,81.80
2018-09-14T11:21:10.254Z,81.70
2018-09-14T11:23:38.474Z,82.00
2018-09-14T11:26:06.747Z,81.70
2018-09-14T11:28:34.959Z,79.10
2018-09-14T11:31:03.251Z,78.90
2018-09-14T11:33:31.549Z,81.30
2018-09-14T11:35:59.739Z,79.10
2018-09-14T11:38:28.051Z,80.40
2018-09-14T11:40:56.156Z,80.60
2018-09-14T11:43:24.472Z,76.80
2018-09-14T11:45:52.708Z,79.00
2018-09-14T11:48:21.037Z,76.60
2018-09-14T11:50:49.305Z,75.50
2018-09-14T11:53:17.519Z,75.40
2018-09-14T11:55:45.756Z,74.40
2018-09-14T11:58:14.017Z,74.10
2018-09-14T12:00:42.260Z,76.90
2018-09-14T12:03:10.490Z,76.10
2018-09-14T12:05:38.872Z,77.70
2018-09-14T12:08:07.192Z,74.90
2018-09-14T12:10:35.439Z,74.80
2018-09-14T12:13:03.735Z,73.00
2018-09-14T12:15:31.959Z,78.00
2018-09-14T12:18:00.170Z,79.10
2018-09-14T12:20:28.503Z,79.00
2018-09-14T12:22:56.696Z,77.30
2018-09-14T12:25:24.894Z,74.60
2018-09-14T12:27:53.203Z,75.30
2018-09-14T12:30:21.443Z,77.80
2018-09-14T12:32:49.682Z,77.50
2018-09-14T12:35:17.933Z,76.10
2018-09-14T12:37:46.182Z,75.20
2018-09-14T12:40:14.457Z,75.10
2018-09-14T12:42:42.650Z,76.50
2018-09-14T12:45:10.915Z,75.10
2018-09-14T12:47:40.013Z,77.20
2018-09-14T12:50:08.240Z,73.90
2018-09-14T12:55:05.039Z,75.00
2018-09-14T12:57:33.370Z,75.70
2018-09-14T13:00:01.649Z,74.30
2018-09-14T13:02:29.877Z,74.60
2018-09-14T13:04:58.143Z,74.10
2018-09-14T13:07:27.422Z,73.70
2018-09-14T13:09:55.663Z,72.40
2018-09-14T13:12:23.967Z,73.20
2018-09-14T13:14:52.265Z,72.30
2018-09-14T13:17:20.418Z,73.60
2018-09-14T13:21:17.939Z,75.30
2018-09-14T13:23:46.199Z,75.70
2018-09-14T13:26:14.480Z,73.70
2018-09-14T13:28:42.696Z,74.20
2018-09-14T13:31:11.024Z,72.40
2018-09-14T13:33:39.335Z,70.80
2018-09-14T13:36:07.757Z,72.20
2018-09-14T13:38:36.204Z,72.20
2018-09-14T13:41:04.590Z,73.30
2018-09-14T13:43:32.886Z,71.90
2018-09-14T13:46:01.187Z,72.60
2018-09-14T13:48:29.479Z,71.20
2018-09-14T13:50:57.782Z,72.00
2018-09-14T13:53:26.006Z,73.30
2018-09-14T13:55:54.353Z,71.20
2018-09-14T13:58:22.870Z,70.40
2018-09-14T14:00:51.128Z,71.40
2018-09-14T14:03:19.373Z,71.70
2018-09-14T14:05:47.615Z,70.10
2018-09-14T14:08:15.917Z,70.60
2018-09-14T14:10:44.127Z,71.60
2018-09-14T14:13:12.532Z,70.10
2018-09-14T14:15:41.130Z,69.60
2018-09-14T14:18:09.812Z,67.80
2018-09-14T14:20:38.059Z,65.70
2018-09-14T14:23:06.419Z,66.90
2018-09-14T14:25:34.684Z,66.30
2018-09-14T14:28:03.121Z,66.30
2018-09-14T14:30:31.388Z,67.70
2018-09-14T14:32:59.679Z,69.50
2018-09-14T14:40:23.990Z,69.30
2018-09-14T14:42:52.196Z,70.70
2018-09-14T14:45:20.424Z,70.10
2018-09-14T14:47:48.780Z,69.60
2018-09-14T14:50:17.247Z,69.10
2018-09-14T14:52:45.575Z,70.00
2018-09-14T14:55:14.101Z,71.30
2018-09-14T14:57:42.411Z,68.80
2018-09-14T15:00:10.743Z,68.20
2018-09-14T15:02:39.032Z,69.30
2018-09-14T15:05:07.352Z,70.70
2018-09-14T15:07:35.752Z,70.80
2018-09-14T15:10:04.004Z,70.40
2018-09-14T15:12:32.247Z,69.90
2018-09-14T15:15:00.556Z,70.70
2018-09-14T15:17:28.892Z,71.50
2018-09-14T15:19:57.188Z,69.90
2018-09-14T15:22:25.460Z,71.50
2018-09-14T15:24:53.807Z,69.40
2018-09-14T15:27:22.266Z,70.80
2018-09-14T15:29:50.508Z,69.90
2018-09-14T15:32:18.705Z,69.20
2018-09-14T15:34:46.973Z,69.40
2018-09-14T15:37:15.217Z,68.90
2018-09-14T15:39:43.491Z,69.60
2018-09-14T15:42:11.762Z,68.30
2018-09-14T15:44:41.003Z,69.40
2018-09-14T15:47:09.197Z,70.40
2018-09-14T15:49:37.446Z,70.90
2018-09-14T15:52:05.656Z,70.60
2018-09-14T15:54:33.911Z,71.00
2018-09-14T15:57:02.263Z,70.30
2018-09-14T15:59:30.587Z,70.60
2018-09-14T16:01:58.807Z,69.40
2018-09-14T16:04:27.079Z,71.00
2018-09-14T16:06:55.372Z,71.10
2018-09-14T16:09:23.665Z,70.30
2018-09-14T16:11:51.908Z,71.90
2018-09-14T16:14:20.253Z,70.60
2018-09-14T16:16:48.590Z,70.80
2018-09-14T16:19:16.869Z,70.00
2018-09-14T16:21:45.165Z,70.60
2018-09-14T16:24:13.399Z,71.90
2018-09-14T16:26:41.663Z,71.60
2018-09-14T16:29:09.945Z,72.30
2018-09-14T16:31:38.408Z,71.80
2018-09-14T16:34:06.609Z,72.20
2018-09-14T16:37:38.224Z,72.70
2018-09-14T16:40:06.582Z,73.50
2018-09-14T16:42:34.796Z,74.50
2018-09-14T16:45:02.986Z,74.60
2018-09-14T16:47:38.051Z,75.00
2018-09-14T16:50:06.602Z,75.20
2018-09-14T16:52:34.814Z,75.60
2018-09-14T16:55:03.114Z,75.50
2018-09-14T16:57:31.329Z,76.40
2018-09-14T16:59:59.693Z,80.40
2018-09-14T17:02:27.940Z,76.70
2018-09-14T17:07:24.094Z,77.90
2018-09-14T17:12:20.266Z,78.30
2018-09-14T17:14:48.894Z,79.40
2018-09-14T17:17:17.114Z,79.80
2018-09-14T17:19:45.421Z,79.60
2018-09-14T17:22:13.674Z,80.20
2018-09-14T17:24:41.880Z,81.20
2018-09-14T17:27:10.123Z,81.60
2018-09-14T17:29:38.502Z,81.90
2018-09-14T17:32:06.989Z,82.10
2018-09-14T17:34:35.367Z,81.90
2018-09-14T17:37:04.166Z,82.10
2018-09-14T17:39:32.330Z,82.40
2018-09-14T17:42:00.713Z,83.40
2018-09-14T17:44:29.036Z,83.50
2018-09-14T17:46:57.328Z,83.70
2018-09-14T17:49:25.529Z,84.50
2018-09-14T17:51:53.975Z,84.30
2018-09-14T17:54:22.235Z,85.10
2018-09-14T17:56:50.468Z,85.70
2018-09-14T17:59:18.743Z,85.00
2018-09-14T18:01:47.040Z,85.70
2018-09-14T18:04:15.312Z,85.40
2018-09-14T18:06:43.710Z,85.80
2018-09-14T18:09:12.507Z,85.20
2018-09-14T18:11:40.895Z,86.30
2018-09-14T18:14:09.247Z,87.00
2018-09-14T18:16:37.505Z,86.90
2018-09-14T18:19:06.082Z,86.60
2018-09-14T18:21:34.432Z,86.70
2018-09-14T18:24:02.959Z,86.80
2018-09-14T18:26:31.354Z,87.30
2018-09-14T18:28:59.612Z,85.90
2018-09-14T18:31:27.914Z,86.60
2018-09-14T18:33:56.291Z,86.60
2018-09-14T18:36:24.547Z,86.60
2018-09-14T18:38:52.752Z,86.80
2018-09-14T18:41:21.171Z,87.30
2018-09-14T18:43:49.488Z,87.60
2018-09-14T18:46:17.749Z,88.40
2018-09-14T18:48:45.959Z,88.70
2018-09-14T18:51:14.336Z,88.80
2018-09-14T18:53:42.542Z,89.30
2018-09-14T18:56:10.767Z,89.40
2018-09-14T18:58:39.095Z,89.20
2018-09-14T19:01:07.378Z,88.60
2018-09-14T19:03:35.584Z,88.50
2018-09-14T19:06:03.803Z,88.80
2018-09-14T19:08:32.021Z,88.60
2018-09-14T19:11:00.299Z,88.30
2018-09-14T19:15:56.460Z,88.70
2018-09-14T19:18:24.888Z,89.90
2018-09-14T19:20:53.196Z,89.90
2018-09-14T19:23:21.492Z,90.00
2018-09-14T19:25:49.775Z,89.90
2018-09-14T19:28:17.990Z,89.60
2018-09-14T19:30:46.445Z,89.10
2018-09-14T19:33:14.831Z,89.20
2018-09-14T19:35:43.165Z,89.30
2018-09-14T19:38:11.367Z,89.30
2018-09-14T19:40:39.583Z,89.10
2018-09-14T19:43:07.866Z,89.00
2018-09-14T19:45:36.126Z,89.20
2018-09-14T19:48:04.552Z,89.60
2018-09-14T19:50:32.832Z,89.80
2018-09-14T19:53:01.115Z,89.80
2018-09-14T19:55:29.416Z,90.10
2018-09-14T19:57:57.654Z,90.00
2018-09-14T20:00:25.959Z,90.00
2018-09-14T20:02:54.240Z,89.60
2018-09-14T20:05:22.534Z,94.00
2018-09-14T20:07:50.820Z,89.60
2018-09-14T20:10:19.144Z,90.10
2018-09-14T20:17:43.370Z,90.30
2018-09-14T20:20:11.643Z,90.30
2018-09-14T20:22:39.846Z,90.70
2018-09-14T20:25:08.141Z,90.70
2018-09-14T20:27:36.699Z,90.30
2018-09-14T20:30:05.768Z,90.90
2018-09-14T20:32:34.040Z,90.40
2018-09-14T20:35:02.378Z,90.70
2018-09-14T20:37:30.705Z,90.60
2018-09-14T20:39:59.139Z,90.60
2018-09-14T20:42:27.467Z,90.50
2018-09-14T20:44:55.877Z,90.50
2018-09-14T20:47:24.116Z,90.50
2018-09-14T20:49:52.403Z,90.30
2018-09-14T20:52:20.719Z,90.30
2018-09-14T20:54:49.208Z,89.40
2018-09-14T20:57:17.562Z,89.40
2018-09-14T20:59:45.857Z,90.00
2018-09-14T21:02:14.129Z,89.50
2018-09-14T21:04:42.340Z,90.20
2018-09-14T21:07:10.589Z,90.10
2018-09-14T21:09:38.848Z,89.80
2018-09-14T21:12:07.059Z,89.30
2018-09-14T21:19:31.499Z,89.00
2018-09-14T21:21:59.903Z,89.90
2018-09-14T21:24:28.254Z,90.20
2018-09-14T21:26:56.491Z,90.30
2018-09-14T21:29:24.791Z,90.40
2018-09-14T21:31:53.033Z,89.50
2018-09-14T21:34:21.403Z,90.10
2018-09-14T21:36:49.692Z,88.70
2018-09-14T21:39:17.977Z,88.10
2018-09-14T21:41:46.335Z,89.00
2018-09-14T21:44:14.601Z,88.80
2018-09-14T21:46:42.949Z,88.50
2018-09-14T21:49:11.247Z,88.30
2018-09-14T21:51:39.529Z,87.20
2018-09-14T21:54:07.843Z,88.10
2018-09-14T21:56:36.110Z,88.00
2018-09-14T21:59:04.517Z,88.80
2018-09-14T22:01:32.842Z,88.20
2018-09-14T22:04:01.590Z,87.10
2018-09-14T22:06:29.895Z,86.70
2018-09-14T22:08:58.211Z,87.70
2018-09-14T22:11:26.457Z,88.70
2018-09-14T22:18:50.860Z,88.30
2018-09-14T22:21:19.132Z,89.60
2018-09-14T22:23:47.419Z,89.60
2018-09-14T22:26:15.706Z,90.10
2018-09-14T22:28:44.014Z,90.60
2018-09-14T22:31:12.221Z,91.00
2018-09-14T22:33:40.570Z,90.80
2018-09-14T22:36:08.956Z,91.20
2018-09-14T22:38:37.215Z,90.70
2018-09-14T22:41:05.538Z,90.90
2018-09-14T22:43:33.964Z,90.60
2018-09-14T22:46:02.264Z,90.30
2018-09-14T22:48:30.510Z,90.30
2018-09-14T22:50:58.767Z,90.50
2018-09-14T22:53:27.055Z,90.40
2018-09-14T22:55:55.476Z,90.30
2018-09-14T22:58:23.748Z,90.10
2018-09-14T23:00:57.342Z,90.10
2018-09-14T23:03:25.699Z,90.60
2018-09-14T23:05:54.128Z,90.40
2018-09-14T23:08:22.451Z,90.60
2018-09-14T23:10:50.693Z,90.60
2018-09-14T23:15:53.998Z,91.30
2018-09-14T23:18:22.199Z,91.30
2018-09-14T23:20:50.480Z,91.20
2018-09-14T23:23:18.837Z,91.50
2018-09-14T23:25:47.215Z,91.20
2018-09-14T23:28:15.436Z,90.70
2018-09-14T23:30:43.682Z,90.00
2018-09-14T23:33:11.886Z,90.40
2018-09-14T23:35:40.168Z,90.40
2018-09-14T23:38:08.360Z,90.00
2018-09-14T23:40:36.762Z,90.50
2018-09-14T23:43:05.155Z,90.60
2018-09-14T23:45:33.510Z,90.60
2018-09-14T23:48:01.940Z,90.30
2018-09-14T23:50:30.143Z,90.20
2018-09-14T23:52:58.406Z,90.20
2018-09-14T23:55:26.890Z,90.40
2018-09-14T23:57:55.110Z,90.40
